Time;durP1;ratioP1;P1;durP2;ratioP2;P2;SDS_P1;SDS_P2;PMS_P1;PMS_P2;Temp;Humidity;BMP_temperature;BMP_pressure;BME280_temperature;BME280_humidity;BME280_pressure;Samples;Min_cycle;Max_cycle;Signal;HPM_P1;HPM_P2
2021/05/27 00:01:42;;;;;;;;;;;;;;;10.95;67.62;100311.02;1669502;84;20273;-75
2021/05/27 00:04:10;;;;;;;;;;;;;;;10.98;67.64;100314.83;1666456;84;20317;-75
2021/05/27 00:06:36;;;;;;;;;;;;;;;10.98;67.47;100309.65;1660187;84;20839;-75
2021/05/27 00:09:02;;;;;;;;;;;;;;;10.97;67.62;100307.09;1663732;84;20229;-75
2021/05/27 00:11:31;;;;;;;;;;;;;;;10.95;67.68;100301.52;1677478;84;20237;-75
2021/05/27 00:13:57;;;;;;;;;;;;;;;10.95;67.75;100304.55;1666742;84;20253;-75
2021/05/27 00:16:23;;;;;;;;;;;;;;;10.97;67.75;100304.06;1653512;84;20176;-75
2021/05/27 00:18:52;;;;;;;;;;;;;;;10.97;67.80;100304.52;1671014;84;20244;-75
2021/05/27 00:21:17;;;;;;;;;;;;;;;10.97;67.76;100300.19;1666486;84;20284;-75
2021/05/27 00:23:43;;;;;;;;;;;;;;;10.97;67.71;100300.19;1656067;86;20248;-73
2021/05/27 00:26:11;;;;;;;;;;;;;;;10.97;67.78;100296.75;1650828;84;20202;-74
2021/05/27 00:28:37;;;;;;;;;;;;;;;10.98;67.85;100299.75;1664110;84;20178;-74
2021/05/27 00:31:04;;;;;;;;;;;;;;;10.99;67.86;100299.70;1666538;84;20185;-74
2021/05/27 00:33:30;;;;;;;;;;;;;;;10.99;67.87;100294.98;1670634;84;20218;-74
2021/05/27 00:35:56;;;;;;;;;;;;;;;10.99;67.88;100296.27;1671997;84;20197;-74
2021/05/27 00:38:22;;;;;;;;;;;;;;;10.98;67.96;100296.72;1668953;84;20232;-74
2021/05/27 00:40:48;;;;;;;;;;;;;;;11.00;68.01;100310.47;1665428;84;20218;-74
2021/05/27 00:43:14;;;;;;;;;;;;;;;11.02;68.04;100317.75;1667532;84;20203;-74
2021/05/27 00:45:40;;;;;;;;;;;;;;;11.01;67.91;100316.49;1676772;84;20273;-74
2021/05/27 00:48:06;;;;;;;;;;;;;;;10.98;67.93;100320.00;1667921;84;20272;-74
2021/05/27 00:50:33;;;;;;;;;;;;;;;10.94;68.06;100316.62;1667416;84;20654;-74
2021/05/27 00:52:59;;;;;;;;;;;;;;;10.94;67.91;100318.36;1661930;84;20240;-74
2021/05/27 00:55:28;;;;;;;;;;;;;;;10.91;67.92;100327.08;1671890;84;20198;-74
2021/05/27 00:57:54;;;;;;;;;;;;;;;10.91;68.24;100328.81;1678431;84;20183;-74
2021/05/27 01:00:26;;;;;;;;;;;;;;;10.95;68.30;100335.59;1662118;84;21190;-74
2021/05/27 01:02:52;;;;;;;;;;;;;;;10.95;68.22;100329.12;1663503;84;20214;-74
2021/05/27 01:05:18;;;;;;;;;;;;;;;10.95;68.22;100329.12;1674956;84;20183;-74
2021/05/27 01:07:45;;;;;;;;;;;;;;;10.95;68.32;100329.97;1659039;84;20244;-74
2021/05/27 01:10:12;;;;;;;;;;;;;;;10.96;68.33;100324.36;1649722;84;20224;-74
2021/05/27 01:12:38;;;;;;;;;;;;;;;10.98;68.36;100328.20;1658449;84;20507;-74
2021/05/27 01:15:28;;;;;;;;;;;;;;;10.97;68.41;100335.11;1653439;84;20232;-74
2021/05/27 01:17:53;;;;;;;;;;;;;;;10.95;68.00;100326.09;1662139;84;20225;-75
2021/05/27 01:20:19;;;;;;;;;;;;;;;10.93;68.36;100328.30;1678422;84;20265;-75
2021/05/27 01:22:45;;;;;;;;;;;;;;;10.94;68.58;100326.97;1658343;84;20283;-75
2021/05/27 01:25:12;;;;;;;;;;;;;;;10.99;68.61;100329.46;1663573;84;20723;-73
2021/05/27 01:27:38;;;;;;;;;;;;;;;10.99;68.53;100333.34;1661336;84;20176;-73
2021/05/27 01:30:06;;;;;;;;;;;;;;;10.99;68.65;100337.22;1662478;84;20634;-73
2021/05/27 01:32:34;;;;;;;;;;;;;;;11.01;68.38;100333.31;1663382;84;20218;-73
2021/05/27 01:35:00;;;;;;;;;;;;;;;10.98;68.66;100341.14;1664387;84;20187;-73
2021/05/27 01:37:26;;;;;;;;;;;;;;;11.01;68.79;100344.95;1657103;84;20251;-74
2021/05/27 01:39:52;;;;;;;;;;;;;;;11.01;68.78;100336.75;1672208;84;21152;-74
2021/05/27 01:42:18;;;;;;;;;;;;;;;10.99;68.70;100337.66;1670799;84;20741;-74
2021/05/27 01:44:44;;;;;;;;;;;;;;;11.01;68.91;100341.07;1674797;84;20671;-74
2021/05/27 01:47:10;;;;;;;;;;;;;;;11.02;68.93;100347.51;1664938;84;20213;-74
2021/05/27 01:49:40;;;;;;;;;;;;;;;11.04;68.73;100343.15;1674870;84;20273;-74
2021/05/27 01:52:07;;;;;;;;;;;;;;;11.05;69.00;100342.70;1675738;84;20177;-75
2021/05/27 01:54:33;;;;;;;;;;;;;;;11.07;69.04;100343.52;1658598;84;20641;-75
2021/05/27 01:56:59;;;;;;;;;;;;;;;11.06;69.05;100350.44;1668188;84;20497;-75
2021/05/27 01:59:25;;;;;;;;;;;;;;;11.07;69.00;100347.41;1669124;84;20838;-75
2021/05/27 02:01:51;;;;;;;;;;;;;;;11.05;69.04;100347.88;1654859;86;20198;-75
2021/05/27 02:04:18;;;;;;;;;;;;;;;11.04;69.12;100350.06;1671954;84;20677;-75
2021/05/27 02:06:44;;;;;;;;;;;;;;;11.03;69.18;100348.36;1675274;84;20282;-75
2021/05/27 02:09:10;;;;;;;;;;;;;;;11.04;69.14;100359.11;1665760;84;20660;-75
2021/05/27 02:11:44;;;;;;;;;;;;;;;10.99;69.00;100357.07;1668226;84;20744;-75
2021/05/27 02:14:12;;;;;;;;;;;;;;;10.92;69.09;100362.81;1664884;84;20520;-75
2021/05/27 02:16:40;;;;;;;;;;;;;;;10.89;69.24;100366.35;1676492;84;20201;-75
2021/05/27 02:19:07;;;;;;;;;;;;;;;10.88;69.28;100367.23;1674520;84;20158;-74
2021/05/27 02:21:35;;;;;;;;;;;;;;;10.85;69.29;100363.42;1679928;84;20532;-74
2021/05/27 02:24:04;;;;;;;;;;;;;;;10.84;69.38;100366.89;1661937;84;20545;-74
2021/05/27 02:26:30;;;;;;;;;;;;;;;10.83;69.35;100366.92;1662553;84;20580;-74
2021/05/27 02:28:56;;;;;;;;;;;;;;;10.80;69.44;100366.55;1660308;84;20264;-74
2021/05/27 02:31:23;;;;;;;;;;;;;;;10.84;69.51;100369.92;1679367;83;20186;-74
2021/05/27 02:33:50;;;;;;;;;;;;;;;10.85;69.53;100371.63;1676904;84;20800;-74
2021/05/27 02:36:17;;;;;;;;;;;;;;;10.83;69.50;100372.09;1675682;84;20555;-74
2021/05/27 02:38:43;;;;;;;;;;;;;;;10.81;69.53;100376.45;1691408;83;20533;-74
2021/05/27 02:41:12;;;;;;;;;;;;;;;10.79;69.51;100380.80;1689185;84;20165;-74
2021/05/27 02:43:38;;;;;;;;;;;;;;;10.78;69.32;100376.51;1672750;84;20449;-74
2021/05/27 02:46:04;;;;;;;;;;;;;;;10.76;69.56;100373.95;1687454;84;20211;-74
2021/05/27 02:48:38;;;;;;;;;;;;;;;10.77;69.63;100374.81;1667149;84;20763;-75
2021/05/27 02:51:05;;;;;;;;;;;;;;;10.78;69.71;100380.39;1679236;84;20209;-75
2021/05/27 02:53:31;;;;;;;;;;;;;;;10.78;69.64;100379.09;1682951;84;20158;-75
2021/05/27 02:55:57;;;;;;;;;;;;;;;10.79;69.75;100379.06;1675719;84;20480;-75
2021/05/27 02:58:23;;;;;;;;;;;;;;;10.83;69.76;100383.73;1681697;84;20730;-75
2021/05/27 03:00:49;;;;;;;;;;;;;;;10.84;69.72;100382.85;1673220;83;20493;-75
2021/05/27 03:03:16;;;;;;;;;;;;;;;10.83;69.77;100386.32;1687754;84;20791;-75
2021/05/27 03:05:43;;;;;;;;;;;;;;;10.84;69.83;100385.44;1674701;83;20500;-75
2021/05/27 03:08:09;;;;;;;;;;;;;;;10.86;69.86;100381.09;1679491;84;20527;-75
2021/05/27 03:10:35;;;;;;;;;;;;;;;10.87;69.83;100383.64;1671111;84;20163;-75
2021/05/27 03:13:01;;;;;;;;;;;;;;;10.84;69.80;100382.85;1677831;84;20175;-75
2021/05/27 03:15:27;;;;;;;;;;;;;;;10.84;69.83;100386.73;1680390;84;20472;-75
2021/05/27 03:17:53;;;;;;;;;;;;;;;10.80;69.85;100391.12;1683206;84;20521;-75
2021/05/27 03:20:19;;;;;;;;;;;;;;;10.81;69.91;100397.98;1674501;84;20237;-75
2021/05/27 03:22:45;;;;;;;;;;;;;;;10.80;69.93;100401.46;1681390;84;20529;-75
2021/05/27 03:25:12;;;;;;;;;;;;;;;10.82;69.86;100401.43;1671151;84;20485;-73
2021/05/27 03:27:38;;;;;;;;;;;;;;;10.78;69.91;100402.38;1678239;84;20473;-75
2021/05/27 03:30:06;;;;;;;;;;;;;;;10.78;70.01;100399.79;1689121;84;20280;-75
2021/05/27 03:32:32;;;;;;;;;;;;;;;10.80;69.99;100400.61;1672451;84;20152;-75
2021/05/27 03:34:58;;;;;;;;;;;;;;;10.80;70.07;100400.17;1679891;83;20230;-75
2021/05/27 03:37:24;;;;;;;;;;;;;;;10.80;69.97;100398.02;1680359;84;20175;-75
2021/05/27 03:42:35;;;;;;;;;;;;;;;10.85;70.20;100406.09;1667234;83;20287;-74
2021/05/27 03:45:05;;;;;;;;;;;;;;;10.89;70.15;100414.20;1687226;84;20247;-74
2021/05/27 03:47:31;;;;;;;;;;;;;;;10.90;70.16;100409.44;1681007;84;20190;-74
2021/05/27 03:49:57;;;;;;;;;;;;;;;10.93;70.20;100414.97;1665958;84;20662;-74
2021/05/27 03:52:27;;;;;;;;;;;;;;;10.96;70.24;100417.48;1672973;85;20178;-74
2021/05/27 03:54:53;;;;;;;;;;;;;;;10.98;70.27;100415.72;1689681;84;20546;-75
2021/05/27 03:57:19;;;;;;;;;;;;;;;10.98;70.25;100415.72;1651905;84;20195;-75
2021/05/27 04:02:29;;;;;;;;;;;;;;;11.02;70.34;100420.39;1657212;84;20241;-74
2021/05/27 04:07:40;;;;;;;;;;;;;;;11.09;70.40;100427.14;1672851;84;20211;-74
2021/05/27 04:10:09;;;;;;;;;;;;;;;11.10;70.36;100430.99;1673275;84;20189;-74
2021/05/27 04:12:47;;;;;;;;;;;;;;;11.12;70.42;100439.58;1672220;84;20469;-74
2021/05/27 04:15:28;;;;;;;;;;;;;;;11.13;70.31;100438.69;1665923;84;20173;-74
2021/05/27 04:18:02;;;;;;;;;;;;;;;11.16;70.40;100437.78;1665597;84;20515;-74
2021/05/27 04:20:30;;;;;;;;;;;;;;;11.19;70.54;100441.16;1650844;84;20552;-74
2021/05/27 04:22:57;;;;;;;;;;;;;;;11.24;70.44;100439.77;1658218;84;20174;-74
2021/05/27 04:25:25;;;;;;;;;;;;;;;11.26;70.32;100433.67;1680242;84;20166;-73
2021/05/27 04:27:53;;;;;;;;;;;;;;;11.25;70.42;100442.31;1657734;84;20514;-75
2021/05/27 04:31:08;;;;;;;;;;;;;;;11.31;70.66;100441.78;1669643;84;20239;-75
2021/05/27 04:33:06;;;;;;;;;;;;;;;11.36;70.51;100447.27;1664996;84;20172;-75
2021/05/27 04:35:37;;;;;;;;;;;;;;;11.35;70.47;100449.88;1668315;84;20585;-74
2021/05/27 04:38:07;;;;;;;;;;;;;;;11.32;70.33;100451.25;1652693;84;20212;-74
2021/05/27 04:40:34;;;;;;;;;;;;;;;11.30;70.50;100459.05;1665707;84;20528;-74
2021/05/27 04:43:08;;;;;;;;;;;;;;;11.34;70.50;100455.50;1657742;84;20495;-74
2021/05/27 04:45:34;;;;;;;;;;;;;;;11.41;70.72;100460.11;1676888;84;20153;-74
2021/05/27 04:48:04;;;;;;;;;;;;;;;11.51;70.78;100462.88;1658685;84;20488;-75
2021/05/27 04:50:29;;;;;;;;;;;;;;;11.63;70.77;100468.22;1675829;84;20170;-75
2021/05/27 04:52:55;;;;;;;;;;;;;;;11.70;70.67;100467.20;1658538;84;20245;-74
2021/05/27 04:55:21;;;;;;;;;;;;;;;11.72;70.34;100477.94;1673453;84;20149;-74
2021/05/27 04:57:47;;;;;;;;;;;;;;;11.72;70.45;100481.82;1682819;84;20253;-75
2021/05/27 05:00:15;;;;;;;;;;;;;;;11.71;70.34;100485.30;1662015;84;20243;-75
2021/05/27 05:02:42;;;;;;;;;;;;;;;11.68;70.40;100485.81;1672941;84;20198;-74
2021/05/27 05:05:10;;;;;;;;;;;;;;;11.68;70.53;100489.69;1669594;84;20235;-74
2021/05/27 05:07:38;;;;;;;;;;;;;;;11.71;70.55;100487.88;1684531;84;20182;-74
2021/05/27 05:10:11;;;;;;;;;;;;;;;11.69;70.47;100493.55;1661383;84;20199;-74
2021/05/27 05:12:46;;;;;;;;;;;;;;;11.67;70.49;100491.88;1671291;84;20199;-74
2021/05/27 05:15:16;;;;;;;;;;;;;;;11.65;70.43;100496.23;1664129;84;20198;-74
2021/05/27 05:17:43;;;;;;;;;;;;;;;11.64;70.61;100499.27;1665721;84;20196;-74
2021/05/27 05:20:10;;;;;;;;;;;;;;;11.69;70.58;100496.13;1671786;84;20183;-74
2021/05/27 05:22:37;;;;;;;;;;;;;;;11.75;70.69;100501.63;1663264;84;20152;-74
2021/05/27 05:25:04;;;;;;;;;;;;;;;11.80;70.55;100499.81;1664746;84;20194;-74
2021/05/27 05:27:30;;;;;;;;;;;;;;;11.81;70.44;100510.14;1659295;84;20264;-74
2021/05/27 05:29:56;;;;;;;;;;;;;;;11.81;70.42;100514.02;1675740;84;20205;-74
2021/05/27 05:32:22;;;;;;;;;;;;;;;11.79;70.33;100515.80;1656403;84;20275;-74
2021/05/27 05:34:51;;;;;;;;;;;;;;;11.82;70.42;100520.91;1681171;82;20274;-74
2021/05/27 05:37:17;;;;;;;;;;;;;;;11.80;70.37;100517.50;1656282;84;21777;-74
2021/05/27 05:39:43;;;;;;;;;;;;;;;11.79;70.31;100528.75;1667960;84;20195;-74
2021/05/27 05:42:09;;;;;;;;;;;;;;;11.76;70.28;100530.08;1676324;84;20261;-74
2021/05/27 05:44:35;;;;;;;;;;;;;;;11.70;70.19;100531.95;1655755;84;20176;-74
2021/05/27 05:47:02;;;;;;;;;;;;;;;11.69;70.29;100536.72;1664496;84;20304;-74
2021/05/27 05:49:28;;;;;;;;;;;;;;;11.69;70.22;100540.16;1674780;84;20967;-75
2021/05/27 05:51:54;;;;;;;;;;;;;;;11.69;70.33;100534.13;1658729;84;20220;-75
2021/05/27 05:54:22;;;;;;;;;;;;;;;11.71;70.49;100540.98;1673701;84;20295;-75
2021/05/27 05:56:48;;;;;;;;;;;;;;;11.73;70.21;100544.84;1656679;84;20536;-75
2021/05/27 05:59:14;;;;;;;;;;;;;;;11.69;70.12;100548.38;1672922;84;20507;-75
2021/05/27 06:01:40;;;;;;;;;;;;;;;11.70;70.38;100550.94;1667265;84;20253;-75
2021/05/27 06:04:07;;;;;;;;;;;;;;;11.75;70.40;100552.98;1663842;84;20193;-75
2021/05/27 06:06:33;;;;;;;;;;;;;;;11.81;70.46;100551.59;1654566;85;20221;-75
2021/05/27 06:09:14;;;;;;;;;;;;;;;11.84;70.30;100565.77;1667900;84;20233;-75
2021/05/27 06:11:40;;;;;;;;;;;;;;;11.85;70.32;100560.15;1662008;84;20273;-75
2021/05/27 06:14:06;;;;;;;;;;;;;;;11.80;70.15;100564.14;1670225;84;20263;-75
2021/05/27 06:16:33;;;;;;;;;;;;;;;11.84;70.39;100567.52;1659428;84;20258;-75
2021/05/27 06:18:59;;;;;;;;;;;;;;;11.91;70.39;100569.94;1677829;84;20345;-75
2021/05/27 06:21:25;;;;;;;;;;;;;;;12.00;70.46;100563.66;1675266;84;20217;-75
2021/05/27 06:23:51;;;;;;;;;;;;;;;12.10;70.35;100567.75;1651118;84;20283;-74
2021/05/27 06:26:17;;;;;;;;;;;;;;;12.23;70.43;100557.95;1664495;84;21078;-74
2021/05/27 06:28:43;;;;;;;;;;;;;;;12.36;70.38;100565.00;1679177;84;20747;-74
2021/05/27 06:31:09;;;;;;;;;;;;;;;12.51;70.39;100569.78;1666409;84;20275;-74
2021/05/27 06:33:36;;;;;;;;;;;;;;;12.51;69.95;100571.08;1667887;84;20258;-74
2021/05/27 06:36:05;;;;;;;;;;;;;;;12.49;70.11;100565.93;1666706;84;20276;-74
2021/05/27 06:38:32;;;;;;;;;;;;;;;12.56;70.23;100573.12;1663461;84;20164;-74
2021/05/27 06:40:58;;;;;;;;;;;;;;;12.62;70.09;100572.97;1671651;84;20240;-74
2021/05/27 06:43:24;;;;;;;;;;;;;;;12.75;70.22;100572.21;1689077;83;20302;-74
2021/05/27 06:45:50;;;;;;;;;;;;;;;12.96;70.43;100575.55;1675130;84;20254;-74
2021/05/27 06:48:16;;;;;;;;;;;;;;;13.24;70.41;100579.56;1664155;84;20324;-74
2021/05/27 06:50:45;;;;;;;;;;;;;;;13.62;70.43;100577.61;1683041;84;20270;-74
2021/05/27 06:53:14;;;;;;;;;;;;;;;14.20;70.35;100588.38;1680121;83;20225;-74
2021/05/27 06:55:41;;;;;;;;;;;;;;;14.52;69.50;100580.44;1684649;84;20251;-74
2021/05/27 06:58:13;;;;;;;;;;;;;;;14.45;69.22;100589.34;1659977;84;20267;-74
2021/05/27 07:00:40;;;;;;;;;;;;;;;14.49;69.45;100588.80;1683573;84;20253;-74
2021/05/27 07:03:07;;;;;;;;;;;;;;;14.77;69.36;100584.80;1658670;84;20311;-74
2021/05/27 07:05:49;;;;;;;;;;;;;;;14.94;69.48;100592.05;1684998;84;20260;-74
2021/05/27 07:08:15;;;;;;;;;;;;;;;15.35;69.33;100582.30;1686241;83;20281;-74
2021/05/27 07:10:41;;;;;;;;;;;;;;;15.46;68.88;100588.42;1686637;83;20218;-74
2021/05/27 07:13:08;;;;;;;;;;;;;;;15.54;69.03;100582.48;1687594;83;20237;-74
2021/05/27 07:15:36;;;;;;;;;;;;;;;15.79;69.36;100578.05;1674437;84;20234;-74
2021/05/27 07:18:04;;;;;;;;;;;;;;;16.16;68.80;100581.37;1686227;84;20293;-75
2021/05/27 07:20:31;;;;;;;;;;;;;;;16.14;68.62;100589.71;1679174;84;20291;-75
2021/05/27 07:22:57;;;;;;;;;;;;;;;16.29;68.82;100587.41;1647845;84;20415;-75
2021/05/27 07:25:27;;;;;;;;;;;;;;;16.50;68.97;100591.31;1667803;84;20233;-75
2021/05/27 07:27:54;;;;;;;;;;;;;;;16.55;68.31;100594.58;1667126;86;20265;-75
2021/05/27 07:30:22;;;;;;;;;;;;;;;16.51;68.16;100594.31;1656940;84;20253;-75
2021/05/27 07:32:49;;;;;;;;;;;;;;;16.37;68.16;100597.94;1663729;84;20502;-75
2021/05/27 07:35:15;;;;;;;;;;;;;;;16.35;68.08;100594.53;1675279;84;20277;-75
2021/05/27 07:37:41;;;;;;;;;;;;;;;16.34;68.53;100594.59;1670212;84;20211;-75
2021/05/27 07:40:11;;;;;;;;;;;;;;;16.67;68.78;100594.99;1677291;84;20193;-75
2021/05/27 07:42:40;;;;;;;;;;;;;;;17.11;68.25;100596.58;1658957;84;20292;-75
2021/05/27 07:45:07;;;;;;;;;;;;;;;17.46;68.19;100596.31;1663773;84;20276;-75
2021/05/27 07:47:34;;;;;;;;;;;;;;;17.91;68.06;100600.84;1676003;84;20267;-75
2021/05/27 07:50:01;;;;;;;;;;;;;;;18.02;67.34;100599.42;1652521;84;20172;-75
2021/05/27 07:52:28;;;;;;;;;;;;;;;17.99;67.44;100610.03;1661581;86;20261;-75
2021/05/27 07:54:55;;;;;;;;;;;;;;;18.08;67.37;100613.53;1658282;84;20280;-75
2021/05/27 07:57:21;;;;;;;;;;;;;;;17.94;67.27;100609.86;1662198;84;20273;-75
2021/05/27 07:59:47;;;;;;;;;;;;;;;17.88;66.98;100603.59;1670632;84;20597;-75
2021/05/27 08:02:13;;;;;;;;;;;;;;;17.74;66.85;100607.70;1666755;84;20303;-75
2021/05/27 08:04:42;;;;;;;;;;;;;;;17.75;66.90;100609.85;1683024;84;20170;-75
2021/05/27 08:07:12;;;;;;;;;;;;;;;17.56;66.72;100610.28;1658392;84;20173;-75
2021/05/27 08:09:38;;;;;;;;;;;;;;;17.35;66.69;100610.31;1662924;84;20213;-75
2021/05/27 08:12:08;;;;;;;;;;;;;;;17.12;66.59;100617.03;1658903;84;20199;-75
2021/05/27 08:14:34;;;;;;;;;;;;;;;16.99;66.59;100619.31;1672147;84;20277;-75
2021/05/27 08:17:00;;;;;;;;;;;;;;;16.74;66.52;100627.77;1676876;84;20278;-75
2021/05/27 08:19:29;;;;;;;;;;;;;;;16.58;66.66;100633.22;1659124;84;20278;-75
2021/05/27 08:21:54;;;;;;;;;;;;;;;16.36;66.47;100630.61;1670817;84;20183;-75
2021/05/27 08:24:20;;;;;;;;;;;;;;;16.29;66.56;100636.53;1663267;84;20283;-74
2021/05/27 08:26:47;;;;;;;;;;;;;;;16.17;66.51;100634.39;1664021;84;20261;-74
2021/05/27 08:29:13;;;;;;;;;;;;;;;16.13;66.38;100638.03;1667489;86;20302;-74
2021/05/27 08:31:40;;;;;;;;;;;;;;;16.09;66.27;100639.09;1677895;84;20216;-74
2021/05/27 08:34:14;;;;;;;;;;;;;;;15.87;66.06;100650.33;1654673;84;20277;-74
2021/05/27 08:36:40;;;;;;;;;;;;;;;15.67;66.00;100646.30;1667577;85;20265;-74
2021/05/27 08:39:08;;;;;;;;;;;;;;;15.55;66.15;100646.28;1667507;84;20197;-74
2021/05/27 08:41:37;;;;;;;;;;;;;;;15.57;66.41;100637.14;1683103;84;20277;-74
2021/05/27 08:44:04;;;;;;;;;;;;;;;15.68;66.35;100637.56;1677583;84;20235;-74
2021/05/27 08:46:30;;;;;;;;;;;;;;;15.76;65.96;100632.92;1675598;84;20288;-74
2021/05/27 08:48:56;;;;;;;;;;;;;;;15.80;65.91;100634.97;1668423;84;20267;-74
2021/05/27 08:51:22;;;;;;;;;;;;;;;15.95;65.96;100634.84;1662502;84;20272;-74
2021/05/27 08:53:49;;;;;;;;;;;;;;;16.10;65.91;100637.73;1676908;84;20292;-74
2021/05/27 08:56:28;;;;;;;;;;;;;;;16.13;65.65;100638.88;1659872;84;20261;-74
2021/05/27 08:58:53;;;;;;;;;;;;;;;16.06;65.44;100647.03;1668887;84;20285;-74
2021/05/27 09:01:22;;;;;;;;;;;;;;;15.83;65.35;100658.31;1680733;84;20181;-74
2021/05/27 09:03:55;;;;;;;;;;;;;;;15.71;65.52;100651.80;1665121;84;20254;-74
2021/05/27 09:06:23;;;;;;;;;;;;;;;15.76;65.47;100655.53;1672313;84;20278;-74
2021/05/27 09:08:49;;;;;;;;;;;;;;;15.77;65.58;100657.23;1670154;84;20529;-74
2021/05/27 09:11:20;;;;;;;;;;;;;;;15.76;65.36;100660.75;1674720;84;20310;-74
2021/05/27 09:14:01;;;;;;;;;;;;;;;15.70;65.15;100652.70;1659473;84;20247;-74
2021/05/27 09:16:29;;;;;;;;;;;;;;;15.52;65.23;100659.88;1670344;84;20552;-74
2021/05/27 09:18:55;;;;;;;;;;;;;;;15.65;65.46;100662.44;1662498;85;20259;-74
2021/05/27 09:21:36;;;;;;;;;;;;;;;15.89;65.45;100657.64;1654497;84;20579;-74
2021/05/27 09:24:02;;;;;;;;;;;;;;;16.22;65.14;100663.31;1675377;84;20182;-74
2021/05/27 09:26:28;;;;;;;;;;;;;;;16.41;65.12;100649.55;1670183;84;20416;-74
2021/05/27 09:29:11;;;;;;;;;;;;;;;16.46;65.05;100655.44;1669839;84;20231;-74
2021/05/27 09:31:56;;;;;;;;;;;;;;;16.64;65.36;100656.02;1671079;84;20612;-74
2021/05/27 09:34:41;;;;;;;;;;;;;;;16.81;65.22;100659.25;1663910;84;20540;-74
2021/05/27 09:37:18;;;;;;;;;;;;;;;16.98;65.06;100658.56;1672292;84;20279;-76
2021/05/27 09:39:47;;;;;;;;;;;;;;;17.07;64.70;100658.17;1662912;84;20219;-75
2021/05/27 09:42:13;;;;;;;;;;;;;;;17.12;64.79;100660.14;1673509;84;20282;-75
2021/05/27 09:44:39;;;;;;;;;;;;;;;17.07;64.24;100661.64;1650670;84;20181;-76
2021/05/27 09:47:09;;;;;;;;;;;;;;;16.93;64.13;100673.12;1673880;84;20190;-76
2021/05/27 09:49:35;;;;;;;;;;;;;;;16.82;64.36;100676.63;1675174;84;20197;-76
2021/05/27 09:52:16;;;;;;;;;;;;;;;16.69;63.92;100671.50;1674597;84;20213;-76
2021/05/27 09:54:54;;;;;;;;;;;;;;;16.61;64.07;100674.87;1680261;84;20567;-76
2021/05/27 09:57:28;;;;;;;;;;;;;;;16.47;64.07;100677.56;1665654;84;20146;-76
2021/05/27 09:59:55;;;;;;;;;;;;;;;16.24;63.88;100680.22;1671504;84;20178;-76
2021/05/27 10:02:22;;;;;;;;;;;;;;;16.15;63.91;100680.11;1678345;84;20184;-76
2021/05/27 10:04:59;;;;;;;;;;;;;;;16.02;63.82;100682.81;1668584;84;20210;-76
2021/05/27 10:07:45;;;;;;;;;;;;;;;15.96;63.79;100688.70;1671034;84;20142;-76
2021/05/27 10:10:20;;;;;;;;;;;;;;;15.74;63.54;100688.18;1661373;84;20158;-75
2021/05/27 10:12:50;;;;;;;;;;;;;;;15.59;63.74;100691.36;1665914;84;20170;-75
2021/05/27 10:15:18;;;;;;;;;;;;;;;15.50;63.71;100695.11;1675404;84;20487;-75
2021/05/27 10:17:46;;;;;;;;;;;;;;;15.42;63.63;100695.83;1668966;84;20159;-75
2021/05/27 10:20:15;;;;;;;;;;;;;;;15.35;63.76;100698.70;1676963;84;20173;-75
2021/05/27 10:22:43;;;;;;;;;;;;;;;15.31;63.69;100699.70;1662168;84;20176;-75
2021/05/27 10:25:21;;;;;;;;;;;;;;;15.35;63.69;100700.85;1671834;84;20168;-75
2021/05/27 10:27:48;;;;;;;;;;;;;;;15.38;63.52;100694.69;1657217;84;20197;-75
2021/05/27 10:30:18;;;;;;;;;;;;;;;15.45;63.53;100694.87;1658883;84;20152;-75
2021/05/27 10:32:47;;;;;;;;;;;;;;;15.49;63.35;100690.80;1674336;84;20150;-75
2021/05/27 10:35:14;;;;;;;;;;;;;;;15.55;63.36;100691.05;1676378;83;20181;-75
2021/05/27 10:37:52;;;;;;;;;;;;;;;15.65;63.36;100695.02;1685083;84;20159;-76
2021/05/27 10:40:25;;;;;;;;;;;;;;;15.89;63.42;100687.63;1678755;84;20163;-76
2021/05/27 10:43:13;;;;;;;;;;;;;;;16.15;63.46;100702.28;1663581;84;20175;-76
2021/05/27 10:46:00;;;;;;;;;;;;;;;16.38;63.26;100687.06;1681485;84;20161;-76
2021/05/27 10:48:44;;;;;;;;;;;;;;;16.64;63.00;100692.99;1677746;84;20193;-76
2021/05/27 10:51:23;;;;;;;;;;;;;;;16.80;62.91;100688.44;1666958;84;20184;-76
2021/05/27 10:53:48;;;;;;;;;;;;;;;16.96;62.71;100687.36;1680652;84;20184;-75
2021/05/27 10:56:17;;;;;;;;;;;;;;;17.02;62.63;100687.11;1680886;84;20178;-75
2021/05/27 10:58:52;;;;;;;;;;;;;;;17.08;62.45;100695.15;1671246;84;20145;-75
2021/05/27 11:01:36;;;;;;;;;;;;;;;17.10;62.49;100692.87;1668308;84;20172;-75
2021/05/27 11:04:33;;;;;;;;;;;;;;;17.05;62.31;100690.91;1664230;84;20419;-75
2021/05/27 11:07:18;;;;;;;;;;;;;;;16.93;62.35;100694.02;1674276;84;20152;-75
2021/05/27 11:09:47;;;;;;;;;;;;;;;16.94;62.38;100689.64;1650958;84;20312;-75
2021/05/27 11:12:18;;;;;;;;;;;;;;;17.03;62.42;100689.27;1674642;84;20184;-75
2021/05/27 11:14:54;;;;;;;;;;;;;;;17.11;62.30;100693.26;1664289;84;20486;-75
2021/05/27 11:17:24;;;;;;;;;;;;;;;17.21;62.35;100688.02;1674341;84;20161;-75
2021/05/27 11:19:54;;;;;;;;;;;;;;;17.34;62.25;100686.19;1676028;84;20192;-75
2021/05/27 11:22:38;;;;;;;;;;;;;;;17.49;62.12;100693.38;1667825;86;20170;-75
2021/05/27 11:25:11;;;;;;;;;;;;;;;17.50;62.01;100691.16;1659768;84;20153;-75
2021/05/27 11:28:11;;;;;;;;;;;;;;;17.53;62.07;100686.64;1667920;84;20525;-75
2021/05/27 11:30:42;;;;;;;;;;;;;;;17.69;62.00;100691.20;1669560;84;20199;-75
2021/05/27 11:33:26;;;;;;;;;;;;;;;17.63;61.61;100684.47;1667754;84;20506;-75
2021/05/27 11:35:57;;;;;;;;;;;;;;;17.59;61.72;100687.29;1651035;84;20192;-75
2021/05/27 11:38:28;;;;;;;;;;;;;;;17.58;61.94;100686.44;1677206;84;20208;-76
2021/05/27 11:40:57;;;;;;;;;;;;;;;17.64;61.94;100683.55;1662493;84;20663;-76
2021/05/27 11:43:28;;;;;;;;;;;;;;;17.73;61.44;100683.61;1675492;84;20174;-76
2021/05/27 11:45:55;;;;;;;;;;;;;;;17.73;61.58;100682.30;1672328;84;20322;-76
2021/05/27 11:48:30;;;;;;;;;;;;;;;17.70;61.55;100686.36;1670359;84;20404;-76
2021/05/27 11:51:05;;;;;;;;;;;;;;;17.71;61.30;100685.44;1670617;84;20271;-76
2021/05/27 11:53:47;;;;;;;;;;;;;;;17.69;61.10;100686.81;1655389;84;20277;-75
2021/05/27 11:56:45;;;;;;;;;;;;;;;17.69;61.05;100681.59;1670752;84;20302;-75
2021/05/27 11:59:20;;;;;;;;;;;;;;;17.71;61.17;100675.83;1667212;84;20234;-75
2021/05/27 12:01:52;;;;;;;;;;;;;;;17.66;60.82;100677.83;1675822;84;20311;-75
2021/05/27 12:04:22;;;;;;;;;;;;;;;17.52;60.79;100687.55;1674416;84;20275;-75
2021/05/27 12:06:56;;;;;;;;;;;;;;;17.37;60.79;100692.13;1650872;84;20184;-75
2021/05/27 12:09:25;;;;;;;;;;;;;;;17.17;60.81;100699.96;1663371;84;20274;-75
2021/05/27 12:11:57;;;;;;;;;;;;;;;17.02;60.92;100706.70;1665538;84;20253;-75
2021/05/27 12:14:23;;;;;;;;;;;;;;;16.95;61.19;100707.86;1659831;84;20264;-75
2021/05/27 12:16:52;;;;;;;;;;;;;;;17.06;61.44;100699.13;1664250;84;20290;-75
2021/05/27 12:19:20;;;;;;;;;;;;;;;17.20;61.47;100699.38;1659424;84;20389;-75
2021/05/27 12:21:57;;;;;;;;;;;;;;;17.31;61.02;100698.92;1676135;84;20182;-75
2021/05/27 12:24:29;;;;;;;;;;;;;;;17.28;60.80;100691.22;1673883;82;20253;-74
2021/05/27 12:26:58;;;;;;;;;;;;;;;17.29;60.89;100693.38;1664863;84;20162;-74
2021/05/27 12:29:25;;;;;;;;;;;;;;;17.31;60.60;100688.93;1676786;84;20171;-76
2021/05/27 12:31:51;;;;;;;;;;;;;;;17.25;60.51;100685.27;1640337;84;20629;-76
2021/05/27 12:34:20;;;;;;;;;;;;;;;17.20;60.60;100689.38;1671691;84;20214;-76
2021/05/27 12:36:55;;;;;;;;;;;;;;;17.18;60.30;100690.75;1660389;84;20166;-76
2021/05/27 12:39:36;;;;;;;;;;;;;;;17.15;60.36;100684.37;1672447;84;20208;-76
2021/05/27 12:42:05;;;;;;;;;;;;;;;17.14;60.34;100683.98;1677298;84;20274;-76
2021/05/27 12:44:44;;;;;;;;;;;;;;;17.19;60.24;100687.68;1667237;84;20558;-76
2021/05/27 12:47:20;;;;;;;;;;;;;;;17.16;60.02;100689.11;1661147;84;20183;-75
2021/05/27 12:49:49;;;;;;;;;;;;;;;17.07;59.93;100694.30;1653446;84;170809;-75
2021/05/27 12:52:37;;;;;;;;;;;;;;;16.94;59.96;100697.02;1662634;84;20156;-75
2021/05/27 12:55:05;;;;;;;;;;;;;;;16.86;59.98;100699.09;1672461;85;20160;-75